Time;durP1;ratioP1;P1;durP2;ratioP2;P2;SDS_P1;SDS_P2;PMS_P1;PMS_P2;Temp;Humidity;BMP_temperature;BMP_pressure;BME280_temperature;BME280_humidity;BME280_pressure;Samples;Min_cycle;Max_cycle;Signal;HPM_P1;HPM_P2
2021/11/28 00:00:27;;;;;;;7.72;4.53;;;;;;;-0.30;93.11;98761.09;4950205;29;20027;-69
2021/11/28 00:02:54;;;;;;;6.18;3.33;;;;;;;-0.33;93.07;98761.91;4967164;29;20023;-69
2021/11/28 00:05:22;;;;;;;9.52;3.72;;;;;;;-0.27;92.84;98748.34;4967589;29;20023;-69
2021/11/28 00:08:07;;;;;;;5.95;3.67;;;;;;;-0.33;92.98;98745.75;4967520;29;20031;-69
2021/11/28 00:11:34;;;;;;;8.65;4.32;;;;;;;-0.34;93.10;98746.59;4967650;29;20439;-69
2021/11/28 00:15:53;;;;;;;5.35;2.97;;;;;;;-0.33;93.18;98751.72;4967656;29;20087;-68
2021/11/28 00:18:19;;;;;;;4.63;3.10;;;;;;;-0.41;93.03;98731.25;4966874;29;20087;-68
2021/11/28 00:20:44;;;;;;;6.28;3.03;;;;;;;-0.37;93.16;98744.88;4949712;29;20023;-68
2021/11/28 00:23:10;;;;;;;7.25;3.95;;;;;;;-0.40;93.24;98732.94;4967111;29;20342;-67
2021/11/28 00:25:35;;;;;;;9.63;4.03;;;;;;;-0.29;92.95;98745.78;4967064;29;20027;-68
2021/11/28 00:28:00;;;;;;;4.57;3.05;;;;;;;-0.33;93.06;98744.06;4967432;29;20067;-67
2021/11/28 00:30:28;;;;;;;6.97;4.07;;;;;;;-0.32;93.15;98745.75;4966946;29;20031;-67
2021/11/28 00:32:54;;;;;;;7.10;3.17;;;;;;;-0.31;93.18;98742.41;4966776;29;20658;-67
2021/11/28 00:35:20;;;;;;;5.22;2.80;;;;;;;-0.32;93.32;98745.75;4966880;29;20515;-69
2021/11/28 00:37:45;;;;;;;5.03;3.40;;;;;;;-0.25;92.66;98744.13;4966917;29;20034;-67
2021/11/28 00:40:11;;;;;;;6.55;3.17;;;;;;;-0.31;92.86;98739.84;4966922;29;20027;-68
2021/11/28 00:42:36;;;;;;;4.30;2.85;;;;;;;-0.35;92.58;98734.72;4966854;29;20030;-68
2021/11/28 00:45:03;;;;;;;4.95;2.67;;;;;;;-0.39;92.61;98738.91;4966938;29;20024;-67
2021/11/28 00:47:28;;;;;;;4.85;3.05;;;;;;;-0.34;92.61;98737.25;4966290;29;20031;-67
2021/11/28 00:52:39;;;;;;;4.70;2.45;;;;;;;-0.34;92.77;98746.59;4966445;29;20373;-67
2021/11/28 00:55:08;;;;;;;4.55;3.10;;;;;;;-0.30;92.54;98744.09;4966705;29;20020;-67
2021/11/28 00:57:33;;;;;;;4.90;2.75;;;;;;;-0.31;92.32;98746.63;4966665;29;20019;-67
2021/11/28 01:00:04;;;;;;;4.53;3.83;;;;;;;-0.40;92.43;98727.00;4966619;29;20103;-68
2021/11/28 01:02:30;;;;;;;5.28;3.08;;;;;;;-0.33;92.57;98744.06;4966126;29;20047;-68
2021/11/28 01:04:56;;;;;;;3.33;2.00;;;;;;;-0.34;92.65;98746.59;4966558;29;20430;-68
2021/11/28 01:07:22;;;;;;;5.38;2.67;;;;;;;-0.36;92.67;98738.94;4965538;28;20027;-68
2021/11/28 01:09:47;;;;;;;3.45;2.10;;;;;;;-0.29;92.28;98744.97;4966501;29;20475;-68
2021/11/28 01:12:13;;;;;;;6.70;3.10;;;;;;;-0.33;92.34;98744.06;4966097;29;20023;-67
2021/11/28 01:14:38;;;;;;;3.45;2.30;;;;;;;-0.39;92.35;98716.84;4966398;29;20035;-68
2021/11/28 01:17:05;;;;;;;4.22;2.35;;;;;;;-0.37;92.68;98734.69;4964458;29;20027;-68
2021/11/28 01:19:31;;;;;;;2.67;1.75;;;;;;;-0.28;92.42;98739.00;4965754;29;20030;-68
2021/11/28 01:22:09;;;;;;;5.22;2.08;;;;;;;-0.29;92.27;98753.44;4966065;29;20027;-67
2021/11/28 01:24:36;;;;;;;7.32;3.05;;;;;;;-0.33;92.45;98738.09;4966273;29;20028;-65
2021/11/28 01:27:04;;;;;;;7.45;3.35;;;;;;;-0.30;92.40;98746.66;4965900;29;20083;-66
2021/11/28 01:29:30;;;;;;;3.10;2.00;;;;;;;-0.19;91.98;98745.91;4965807;29;20050;-66
2021/11/28 01:31:57;;;;;;;6.43;3.17;;;;;;;-0.24;91.96;98737.34;4965990;29;20482;-65
2021/11/28 01:34:22;;;;;;;2.33;1.60;;;;;;;-0.36;92.24;98733.84;4965699;29;20023;-65
2021/11/28 01:36:47;;;;;;;8.25;2.83;;;;;;;-0.35;92.28;98729.59;4965750;29;20037;-66
2021/11/28 01:39:13;;;;;;;5.35;2.35;;;;;;;-0.23;92.35;98739.03;4965762;29;20538;-66
2021/11/28 01:41:38;;;;;;;3.85;2.38;;;;;;;-0.26;91.98;98730.50;4965573;29;20031;-66
2021/11/28 01:44:04;;;;;;;6.05;2.40;;;;;;;-0.26;92.00;98744.97;4965971;29;20102;-66
2021/11/28 01:46:30;;;;;;;13.43;2.50;;;;;;;-0.23;92.10;98737.34;4964394;28;20031;-66
2021/11/28 01:48:56;;;;;;;8.10;3.05;;;;;;;-0.26;92.30;98738.16;4965403;29;20510;-66
2021/11/28 01:51:21;;;;;;;3.83;2.33;;;;;;;-0.29;92.12;98724.56;4948111;29;20058;-66
2021/11/28 01:53:50;;;;;;;4.50;2.63;;;;;;;-0.24;92.34;98748.41;4965552;29;20439;-66
2021/11/28 01:56:15;;;;;;;4.95;2.38;;;;;;;-0.22;92.26;98743.31;4980394;28;20027;-66
2021/11/28 01:58:41;;;;;;;2.67;1.55;;;;;;;-0.17;91.81;98734.84;4965492;29;20502;-65
2021/11/28 02:01:12;;;;;;;1.33;1.20;;;;;;;-0.17;91.92;98744.19;4965343;29;20031;-65
2021/11/28 02:03:40;;;;;;;3.58;1.85;;;;;;;-0.29;91.69;98724.56;4965122;29;20488;-66
2021/11/28 02:06:09;;;;;;;2.47;1.90;;;;;;;-0.24;92.17;98750.97;4963938;29;20027;-66
2021/11/28 02:08:36;;;;;;;5.25;2.20;;;;;;;-0.24;92.11;98743.31;4965456;29;20105;-66
2021/11/28 02:11:01;;;;;;;6.50;2.97;;;;;;;-0.22;92.24;98736.50;4965446;29;20178;-66
2021/11/28 02:13:27;;;;;;;4.55;2.20;;;;;;;-0.18;92.08;98738.25;4965117;29;20468;-65
2021/11/28 02:15:53;;;;;;;6.22;3.15;;;;;;;-0.19;91.88;98739.06;4965170;29;20038;-66
2021/11/28 02:18:18;;;;;;;4.68;2.53;;;;;;;-0.21;92.28;98737.38;4964569;28;20059;-65
2021/11/28 02:20:57;;;;;;;5.05;2.38;;;;;;;-0.19;92.23;98745.91;4965323;29;20023;-65
2021/11/28 02:23:23;;;;;;;5.97;2.80;;;;;;;-0.30;92.40;98722.81;4965092;29;20034;-66
2021/11/28 02:25:50;;;;;;;5.75;3.10;;;;;;;-0.19;92.21;98730.59;4963978;29;20031;-66
2021/11/28 02:28:16;;;;;;;5.18;2.83;;;;;;;-0.24;92.48;98745.88;4965103;29;20079;-65
2021/11/28 02:30:42;;;;;;;7.20;3.25;;;;;;;-0.19;92.35;98740.78;4965149;29;20027;-65
2021/11/28 02:33:08;;;;;;;8.30;2.72;;;;;;;-0.22;92.34;98735.66;4964813;29;20542;-67
2021/11/28 02:35:34;;;;;;;11.23;4.20;;;;;;;-0.20;92.33;98733.97;4965206;29;20031;-66
2021/11/28 02:38:02;;;;;;;6.45;2.60;;;;;;;-0.21;92.22;98740.78;4965039;29;20023;-65
2021/11/28 02:40:30;;;;;;;4.05;2.30;;;;;;;-0.26;92.52;98730.50;4965105;29;20027;-66
2021/11/28 02:42:56;;;;;;;5.82;1.88;;;;;;;-0.27;92.63;98728.81;4964840;29;20034;-65
2021/11/28 02:45:24;;;;;;;6.07;3.25;;;;;;;-0.29;92.70;98730.50;4965020;29;20023;-66
2021/11/28 02:47:54;;;;;;;5.95;2.92;;;;;;;-0.28;92.72;98734.75;4964913;29;20512;-65
2021/11/28 02:50:22;;;;;;;5.47;2.72;;;;;;;-0.27;92.74;98727.94;4963602;29;20472;-65
2021/11/28 02:52:53;;;;;;;6.05;2.80;;;;;;;-0.26;92.73;98722.03;4964902;29;20030;-65
2021/11/28 02:55:41;;;;;;;7.97;2.83;;;;;;;-0.29;92.89;98725.38;4963704;29;20204;-65
2021/11/28 02:58:08;;;;;;;3.53;2.33;;;;;;;-0.35;92.65;98715.13;4965004;29;20031;-65
2021/11/28 03:00:36;;;;;;;4.88;2.67;;;;;;;-0.29;92.70;98720.28;4964820;29;20090;-66
2021/11/28 03:03:01;;;;;;;3.75;1.98;;;;;;;-0.37;92.82;98709.19;4964580;29;20034;-66
2021/11/28 03:05:27;;;;;;;8.18;3.22;;;;;;;-0.42;92.95;98709.16;4964772;29;20028;-66
2021/11/28 03:07:52;;;;;;;6.30;2.67;;;;;;;-0.39;92.83;98704.06;4963433;28;20019;-66
2021/11/28 03:10:40;;;;;;;6.32;2.15;;;;;;;-0.35;93.03;98717.69;4964960;29;20035;-65
2021/11/28 03:13:28;;;;;;;9.45;3.83;;;;;;;-0.36;93.10;98717.66;4964652;29;20023;-65
2021/11/28 03:15:56;;;;;;;3.97;2.00;;;;;;;-0.41;93.14;98703.19;4964517;28;20095;-66
2021/11/28 03:18:24;;;;;;;2.63;1.45;;;;;;;-0.37;93.26;98727.03;4964303;29;20408;-65
2021/11/28 03:20:52;;;;;;;7.18;3.17;;;;;;;-0.45;93.31;98698.06;4964775;29;20027;-66
2021/11/28 03:23:20;;;;;;;4.13;1.67;;;;;;;-0.43;93.07;98701.50;4964765;29;20028;-68
2021/11/28 03:25:45;;;;;;;6.70;3.13;;;;;;;-0.39;93.25;98718.50;4964755;29;20058;-65
2021/11/28 03:28:15;;;;;;;7.15;2.53;;;;;;;-0.34;93.24;98716.88;4964531;29;20023;-66
2021/11/28 03:30:42;;;;;;;4.75;1.88;;;;;;;-0.33;93.16;98718.56;4966334;28;20031;-66
2021/11/28 03:33:08;;;;;;;5.72;2.67;;;;;;;-0.42;92.96;98705.75;4966409;29;20034;-67
2021/11/28 03:35:34;;;;;;;12.32;3.75;;;;;;;-0.37;93.02;98711.75;4968200;29;20027;-67
2021/11/28 03:37:59;;;;;;;7.32;2.33;;;;;;;-0.46;93.18;98702.31;4967857;29;20495;-67
2021/11/28 03:40:24;;;;;;;4.00;2.05;;;;;;;-0.33;92.96;98713.47;4968030;29;20074;-66
2021/11/28 03:42:50;;;;;;;4.50;2.42;;;;;;;-0.36;93.27;98716.00;4967585;29;20242;-66
2021/11/28 03:45:18;;;;;;;5.25;2.38;;;;;;;-0.39;93.24;98713.41;4967858;29;20031;-67
2021/11/28 03:47:46;;;;;;;8.18;2.90;;;;;;;-0.38;93.13;98725.31;4967636;29;20027;-67
2021/11/28 03:50:11;;;;;;;7.32;2.70;;;;;;;-0.40;93.27;98714.25;4967972;29;20028;-67
2021/11/28 03:52:37;;;;;;;6.07;2.85;;;;;;;-0.39;93.25;98716.84;4967707;29;20035;-67
2021/11/28 03:55:04;;;;;;;7.40;2.63;;;;;;;-0.42;93.29;98706.59;4966582;29;20027;-67
2021/11/28 03:57:30;;;;;;;7.70;3.13;;;;;;;-0.41;93.23;98715.09;4967773;29;20035;-67
2021/11/28 03:59:55;;;;;;;8.25;2.58;;;;;;;-0.48;93.40;98708.25;4967511;29;20027;-66
2021/11/28 04:02:21;;;;;;;6.97;1.92;;;;;;;-0.45;93.61;98713.38;4967236;29;20027;-66
2021/11/28 04:04:46;;;;;;;3.72;1.88;;;;;;;-0.38;93.34;98725.31;4967544;29;20027;-66
2021/11/28 04:07:12;;;;;;;4.18;1.88;;;;;;;-0.39;93.44;98721.94;4967616;29;20341;-65
2021/11/28 04:09:37;;;;;;;6.95;2.40;;;;;;;-0.39;93.26;98715.97;4967718;29;20046;-67
2021/11/28 04:12:03;;;;;;;5.95;2.92;;;;;;;-0.46;93.36;98711.66;4982152;28;20030;-66
2021/11/28 04:14:28;;;;;;;4.38;2.65;;;;;;;-0.42;93.31;98710.84;4967419;29;20027;-66
2021/11/28 04:16:54;;;;;;;8.32;2.70;;;;;;;-0.35;93.17;98712.59;4949934;29;20031;-66
2021/11/28 04:19:19;;;;;;;4.15;2.05;;;;;;;-0.36;92.71;98713.44;4962414;29;20079;-67
2021/11/28 04:21:45;;;;;;;7.22;2.60;;;;;;;-0.40;92.49;98701.50;4947957;29;20035;-66
2021/11/28 04:24:12;;;;;;;3.47;1.42;;;;;;;-0.38;92.92;98704.91;4947801;29;20020;-66
2021/11/28 04:26:39;;;;;;;4.38;2.30;;;;;;;-0.38;92.88;98707.47;4947899;29;20122;-66
2021/11/28 04:29:05;;;;;;;4.53;2.03;;;;;;;-0.41;93.02;98705.75;4948031;29;20016;-66
2021/11/28 04:31:30;;;;;;;3.72;2.10;;;;;;;-0.40;93.11;98702.34;4946570;29;20028;-66
2021/11/28 04:33:56;;;;;;;8.10;4.13;;;;;;;-0.42;93.37;98708.28;4947680;29;20090;-67
2021/11/28 04:36:21;;;;;;;5.32;3.00;;;;;;;-0.40;93.32;98706.63;4947860;29;20035;-66
2021/11/28 04:38:46;;;;;;;4.60;2.25;;;;;;;-0.27;92.78;98710.97;4947815;29;20556;-66
2021/11/28 04:41:12;;;;;;;2.85;1.80;;;;;;;-0.48;92.93;98687.84;4947831;29;20082;-66
2021/11/28 04:43:37;;;;;;;5.43;2.35;;;;;;;-0.49;93.10;98697.16;4946190;29;20027;-66
2021/11/28 04:46:02;;;;;;;3.17;1.23;;;;;;;-0.35;92.79;98712.59;4947727;29;20119;-66
2021/11/28 04:48:28;;;;;;;4.65;2.58;;;;;;;-0.40;93.14;98711.72;4947475;29;20323;-66
2021/11/28 04:50:53;;;;;;;3.75;2.20;;;;;;;-0.42;93.08;98706.59;4947598;29;20027;-66
2021/11/28 04:53:19;;;;;;;4.22;2.10;;;;;;;-0.39;92.92;98718.50;4947622;29;20016;-66
2021/11/28 04:55:44;;;;;;;7.38;2.83;;;;;;;-0.37;92.90;98716.84;4947575;29;20082;-66
2021/11/28 04:58:10;;;;;;;2.60;1.38;;;;;;;-0.31;92.33;98709.25;4947536;29;20067;-66
2021/11/28 05:00:35;;;;;;;4.72;2.15;;;;;;;-0.36;92.57;98713.44;4947510;29;20130;-66
2021/11/28 05:03:01;;;;;;;2.42;1.67;;;;;;;-0.35;92.48;98704.94;4947014;29;20491;-66
2021/11/28 05:05:27;;;;;;;4.00;1.60;;;;;;;-0.27;92.21;98716.06;4947364;29;20027;-66
2021/11/28 05:07:54;;;;;;;5.07;2.72;;;;;;;-0.39;92.55;98709.19;4947493;29;20096;-66
2021/11/28 05:10:19;;;;;;;4.53;2.15;;;;;;;-0.40;92.79;98714.25;4947279;29;20054;-66
2021/11/28 05:12:45;;;;;;;10.55;3.28;;;;;;;-0.47;92.84;98712.47;4947015;29;20031;-65
2021/11/28 05:15:10;;;;;;;3.83;1.95;;;;;;;-0.35;92.68;98717.69;4947303;29;20027;-65
2021/11/28 05:17:36;;;;;;;4.88;1.48;;;;;;;-0.41;92.61;98700.66;4951413;29;20455;-65
2021/11/28 05:20:03;;;;;;;3.08;1.95;;;;;;;-0.36;92.71;98716.00;4981122;28;20467;-65
2021/11/28 05:22:29;;;;;;;3.78;2.33;;;;;;;-0.39;92.85;98718.50;4965922;29;20035;-65
2021/11/28 05:24:54;;;;;;;2.33;1.23;;;;;;;-0.39;92.83;98711.72;4966149;29;20385;-65
2021/11/28 05:27:20;;;;;;;5.65;2.17;;;;;;;-0.39;92.59;98710.88;4964792;29;20038;-65
2021/11/28 05:29:46;;;;;;;5.55;2.05;;;;;;;-0.43;92.56;98701.50;4966190;29;20046;-66
2021/11/28 05:32:11;;;;;;;3.58;2.20;;;;;;;-0.38;92.54;98717.66;4965810;29;20050;-65
2021/11/28 05:34:37;;;;;;;4.38;1.85;;;;;;;-0.42;92.79;98719.34;4965778;29;20038;-66
2021/11/28 05:37:03;;;;;;;5.03;2.15;;;;;;;-0.39;92.78;98718.50;4965927;29;20054;-66
2021/11/28 05:39:29;;;;;;;3.63;1.95;;;;;;;-0.39;92.80;98713.41;4964623;29;20024;-66
2021/11/28 05:41:55;;;;;;;6.68;2.55;;;;;;;-0.35;92.52;98717.69;4965992;29;20027;-66
2021/11/28 05:44:20;;;;;;;6.75;1.92;;;;;;;-0.29;92.28;98725.38;4965784;29;20698;-66
2021/11/28 05:46:46;;;;;;;3.53;2.28;;;;;;;-0.30;92.10;98722.81;4965877;29;20023;-66
2021/11/28 05:49:11;;;;;;;5.88;2.45;;;;;;;-0.33;92.29;98723.66;4965403;29;20031;-66
2021/11/28 05:51:36;;;;;;;3.97;2.20;;;;;;;-0.38;92.18;98725.31;4965512;29;20059;-67
2021/11/28 05:54:02;;;;;;;5.40;2.20;;;;;;;-0.32;92.30;98735.56;4965092;28;20024;-66
2021/11/28 05:56:29;;;;;;;5.53;2.17;;;;;;;-0.35;92.37;98729.59;4965716;29;20034;-66
2021/11/28 05:58:54;;;;;;;1.85;1.48;;;;;;;-0.34;92.13;98732.16;4965773;29;20033;-66
2021/11/28 06:01:20;;;;;;;2.17;1.48;;;;;;;-0.41;92.40;98723.59;4948135;29;20042;-65
2021/11/28 06:03:45;;;;;;;2.80;1.75;;;;;;;-0.36;92.31;98725.31;4965204;29;20027;-67
2021/11/28 06:06:11;;;;;;;6.07;2.80;;;;;;;-0.46;92.33;98725.25;4965408;29;20027;-66
2021/11/28 06:08:37;;;;;;;3.50;2.25;;;;;;;-0.32;92.00;98725.34;4965187;29;20026;-67
2021/11/28 06:11:02;;;;;;;4.78;2.35;;;;;;;-0.36;92.12;98738.06;4965260;29;20035;-66
2021/11/28 06:13:27;;;;;;;5.93;1.38;;;;;;;-0.34;91.90;98727.06;4965167;29;20031;-67
2021/11/28 06:15:53;;;;;;;3.60;2.13;;;;;;;-0.49;92.12;98717.56;4965169;29;20031;-66
2021/11/28 06:18:18;;;;;;;5.70;3.20;;;;;;;-0.36;92.23;98732.97;4964790;29;20075;-66
2021/11/28 06:20:44;;;;;;;2.42;1.67;;;;;;;-0.39;92.41;98741.47;4965241;29;20050;-67
2021/11/28 06:23:09;;;;;;;2.72;1.52;;;;;;;-0.44;92.56;98741.41;4964946;29;20027;-67
2021/11/28 06:25:35;;;;;;;3.72;1.80;;;;;;;-0.38;92.21;98745.72;4947865;29;20468;-67
2021/11/28 06:28:00;;;;;;;4.68;2.20;;;;;;;-0.41;92.44;98745.69;4965082;29;20023;-67
2021/11/28 06:30:26;;;;;;;5.75;2.90;;;;;;;-0.40;92.14;98748.25;4965015;29;20034;-66
2021/11/28 06:32:52;;;;;;;5.57;2.03;;;;;;;-0.35;91.94;98744.91;4964827;29;20023;-67
2021/11/28 06:35:17;;;;;;;2.55;1.45;;;;;;;-0.51;92.28;98730.31;4964972;29;20170;-67
2021/11/28 06:37:43;;;;;;;4.45;2.35;;;;;;;-0.42;92.31;98746.53;4964860;29;20027;-66
2021/11/28 06:40:09;;;;;;;3.53;1.65;;;;;;;-0.45;92.44;98754.16;4964942;29;20027;-66
2021/11/28 06:42:34;;;;;;;5.60;3.33;;;;;;;-0.47;92.00;98745.63;4964818;29;20090;-65
2021/11/28 06:45:00;;;;;;;1.88;0.95;;;;;;;-0.39;91.47;98747.44;4964925;29;20498;-65
2021/11/28 06:47:25;;;;;;;3.67;2.13;;;;;;;-0.37;91.56;98770.41;4965066;29;20043;-67
2021/11/28 06:49:50;;;;;;;3.45;1.95;;;;;;;-0.40;91.84;98771.19;4964750;29;20053;-66
2021/11/28 06:52:16;;;;;;;2.35;1.20;;;;;;;-0.30;91.34;98764.50;4964688;29;20028;-67
2021/11/28 06:54:41;;;;;;;3.92;1.88;;;;;;;-0.27;90.77;98766.22;4964766;29;20031;-66
2021/11/28 06:57:07;;;;;;;1.85;1.45;;;;;;;-0.35;91.29;98763.59;4964826;29;20156;-66
2021/11/28 06:59:32;;;;;;;1.60;1.15;;;;;;;-0.46;91.68;98753.28;4964833;29;20058;-66
2021/11/28 07:01:58;;;;;;;3.90;2.33;;;;;;;-0.52;91.57;98743.91;4964642;29;20023;-67
2021/11/28 07:04:24;;;;;;;3.88;1.70;;;;;;;-0.46;91.96;98770.31;4964601;28;20080;-66
2021/11/28 07:06:49;;;;;;;5.22;2.28;;;;;;;-0.37;91.32;98765.28;4950794;29;20042;-66
2021/11/28 07:09:15;;;;;;;2.08;1.63;;;;;;;-0.40;91.58;98775.47;4968493;29;20026;-66
2021/11/28 07:11:40;;;;;;;3.88;1.88;;;;;;;-0.40;91.69;98781.41;4968042;29;20094;-67
2021/11/28 07:14:06;;;;;;;5.65;2.63;;;;;;;-0.38;91.65;98781.41;4968304;29;20464;-66
2021/11/28 07:16:31;;;;;;;5.15;1.92;;;;;;;-0.43;91.48;98770.34;4968527;29;20057;-66
2021/11/28 07:18:57;;;;;;;6.72;2.13;;;;;;;-0.44;91.70;98766.91;4967962;29;20051;-66
2021/11/28 07:21:22;;;;;;;6.60;2.28;;;;;;;-0.50;91.93;98771.97;4983002;28;20023;-66
2021/11/28 07:23:48;;;;;;;1.63;1.15;;;;;;;-0.35;91.79;98793.34;4967969;29;20113;-66
2021/11/28 07:26:14;;;;;;;2.40;1.70;;;;;;;-0.35;91.73;98785.72;4968140;29;20045;-67
2021/11/28 07:28:40;;;;;;;3.97;2.10;;;;;;;-0.41;91.78;98781.38;4968384;29;20027;-66
2021/11/28 07:31:06;;;;;;;4.53;1.95;;;;;;;-0.43;91.76;98777.97;4968063;29;20030;-66
2021/11/28 07:33:35;;;;;;;4.25;2.33;;;;;;;-0.39;91.72;98787.38;4967548;29;20035;-66
2021/11/28 07:36:01;;;;;;;5.10;2.78;;;;;;;-0.47;91.99;98781.31;4968125;29;20029;-66
2021/11/28 07:38:26;;;;;;;4.85;2.30;;;;;;;-0.41;92.04;98801.78;4967819;29;20030;-66
2021/11/28 07:40:51;;;;;;;3.35;2.10;;;;;;;-0.36;91.81;98809.47;4968049;29;20380;-66
2021/11/28 07:43:17;;;;;;;7.57;2.95;;;;;;;-0.41;91.90;98806.88;4967708;29;20023;-66
2021/11/28 07:45:42;;;;;;;3.05;1.80;;;;;;;-0.43;92.07;98804.31;4967975;29;20427;-67
2021/11/28 07:48:07;;;;;;;6.85;2.45;;;;;;;-0.44;92.12;98801.75;4967301;29;20031;-68
2021/11/28 07:50:33;;;;;;;3.20;2.08;;;;;;;-0.35;91.54;98796.75;4967739;29;20030;-67
2021/11/28 07:52:58;;;;;;;7.70;2.80;;;;;;;-0.43;91.23;98788.19;4950197;29;20053;-67
2021/11/28 07:55:24;;;;;;;2.65;1.75;;;;;;;-0.41;91.75;98795.00;4967762;29;20027;-67
2021/11/28 07:57:49;;;;;;;5.35;2.33;;;;;;;-0.39;91.45;98797.56;4966640;29;20024;-66
2021/11/28 08:00:15;;;;;;;2.78;1.42;;;;;;;-0.29;91.05;98816.38;4968237;29;20464;-69
2021/11/28 08:02:40;;;;;;;3.70;1.60;;;;;;;-0.34;90.79;98806.13;4967140;29;20126;-67
2021/11/28 08:05:07;;;;;;;4.18;2.00;;;;;;;-0.36;90.90;98810.34;4967442;29;20487;-68
2021/11/28 08:07:32;;;;;;;5.63;2.72;;;;;;;-0.39;91.19;98806.06;4967348;29;20035;-68
2021/11/28 08:09:58;;;;;;;7.13;2.08;;;;;;;-0.41;91.24;98817.09;4967192;29;20027;-68
2021/11/28 08:12:25;;;;;;;3.63;2.58;;;;;;;-0.39;90.65;98800.13;4967044;29;20034;-68
2021/11/28 08:14:51;;;;;;;3.30;1.40;;;;;;;-0.42;91.27;98816.25;4967333;29;20253;-67
2021/11/28 08:17:16;;;;;;;3.55;1.92;;;;;;;-0.34;91.14;98823.97;4966631;28;20083;-67
2021/11/28 08:19:42;;;;;;;3.47;2.00;;;;;;;-0.37;91.29;98823.94;4966750;29;20086;-67
2021/11/28 08:22:08;;;;;;;4.80;2.28;;;;;;;-0.40;91.03;98808.63;4967120;29;20114;-66
2021/11/28 08:24:34;;;;;;;4.40;2.17;;;;;;;-0.26;90.75;98824.88;4967073;29;20503;-67
2021/11/28 08:26:59;;;;;;;1.45;1.20;;;;;;;-0.29;90.31;98809.56;4966737;29;20027;-67
2021/11/28 08:29:25;;;;;;;1.80;1.38;;;;;;;-0.28;90.65;98830.81;4966976;29;20087;-66
2021/11/28 08:31:51;;;;;;;3.63;2.65;;;;;;;-0.18;90.10;98830.09;4967152;29;20023;-67
2021/11/28 08:34:16;;;;;;;6.38;2.38;;;;;;;-0.27;90.72;98825.72;4966973;29;20559;-70
2021/11/28 08:36:42;;;;;;;4.45;1.77;;;;;;;-0.40;91.25;98813.72;4966993;29;20383;-68
2021/11/28 08:39:07;;;;;;;1.92;1.38;;;;;;;-0.21;90.48;98826.66;4966798;29;20037;-68
2021/11/28 08:41:33;;;;;;;6.07;2.45;;;;;;;-0.23;90.87;98828.31;4966902;29;20059;-68
2021/11/28 08:43:58;;;;;;;5.10;2.45;;;;;;;-0.22;90.91;98827.50;4966756;29;20031;-68
2021/11/28 08:46:25;;;;;;;2.25;1.30;;;;;;;-0.20;90.85;98829.22;4966850;29;20041;-68
2021/11/28 08:48:53;;;;;;;3.13;1.92;;;;;;;-0.20;90.87;98831.75;4966528;29;20055;-68
2021/11/28 08:51:20;;;;;;;5.47;2.83;;;;;;;-0.11;90.17;98845.44;4966890;29;20027;-69
2021/11/28 08:53:46;;;;;;;2.83;1.95;;;;;;;-0.13;90.42;98851.38;4966775;29;20019;-67
2021/11/28 08:56:12;;;;;;;4.55;2.03;;;;;;;-0.19;90.24;98835.19;4966653;29;20031;-68
2021/11/28 08:58:38;;;;;;;2.47;1.60;;;;;;;-0.18;90.43;98842.84;4981475;28;20019;-67
2021/11/28 09:01:03;;;;;;;2.95;1.88;;;;;;;-0.23;90.79;98847.03;4966585;29;20094;-67
2021/11/28 09:03:29;;;;;;;5.35;2.53;;;;;;;-0.10;90.67;98853.13;4966036;29;20050;-67
2021/11/28 09:05:54;;;;;;;3.53;1.48;;;;;;;-0.20;91.13;98838.53;4966607;29;20038;-68
2021/11/28 09:08:22;;;;;;;2.40;1.35;;;;;;;-0.11;90.44;98838.63;4966407;29;20113;-69
2021/11/28 09:10:47;;;;;;;4.10;1.65;;;;;;;-0.05;90.46;98845.50;4966359;29;20037;-67
2021/11/28 09:13:13;;;;;;;4.55;2.08;;;;;;;-0.05;90.66;98840.41;4966131;29;20110;-68
2021/11/28 09:15:39;;;;;;;2.95;1.63;;;;;;;-0.04;90.55;98847.22;4966457;29;20031;-68
2021/11/28 09:18:16;;;;;;;5.28;2.50;;;;;;;-0.08;90.71;98845.47;4965748;29;20063;-68
2021/11/28 09:20:45;;;;;;;4.00;2.15;;;;;;;-0.08;91.07;98836.09;4966215;29;20054;-68
2021/11/28 09:25:36;;;;;;;2.10;1.48;;;;;;;-0.09;90.34;98824.19;4966231;29;20035;-66
2021/11/28 09:28:04;;;;;;;2.83;1.55;;;;;;;0.10;89.89;98849.88;4965158;28;20055;-68
2021/11/28 09:30:30;;;;;;;3.50;1.58;;;;;;;0.19;89.24;98841.47;4966123;29;20107;-68
2021/11/28 09:32:57;;;;;;;2.33;1.67;;;;;;;0.05;90.09;98859.22;4965378;29;20075;-68
2021/11/28 09:35:23;;;;;;;1.52;1.38;;;;;;;0.10;89.96;98852.44;4965728;29;20023;-68
2021/11/28 09:37:50;;;;;;;6.63;1.90;;;;;;;0.11;89.71;98856.72;4965836;29;20054;-69
2021/11/28 09:40:15;;;;;;;1.95;1.33;;;;;;;0.10;90.08;98866.06;4948331;29;20091;-68
2021/11/28 09:42:53;;;;;;;2.58;1.55;;;;;;;0.10;90.26;98863.50;4965407;29;20324;-69
2021/11/28 09:45:20;;;;;;;3.80;2.00;;;;;;;0.13;90.12;98865.22;4965462;29;20047;-70
2021/11/28 09:47:47;;;;;;;4.53;1.75;;;;;;;0.14;90.13;98866.09;4965430;29;20046;-71
2021/11/28 09:50:13;;;;;;;6.43;1.35;;;;;;;0.10;90.07;98849.88;4965449;29;20511;-69
2021/11/28 09:52:39;;;;;;;2.83;1.90;;;;;;;0.17;89.84;98856.78;4965265;29;20151;-70
2021/11/28 09:55:08;;;;;;;2.83;2.25;;;;;;;0.20;89.80;98874.66;4948106;29;20030;-68
2021/11/28 09:57:33;;;;;;;2.08;1.42;;;;;;;0.21;89.51;98865.28;4964308;29;20019;-69
2021/11/28 09:59:59;;;;;;;3.72;1.95;;;;;;;0.21;89.91;98855.06;4965259;29;20028;-69
2021/11/28 10:02:31;;;;;;;2.15;1.80;;;;;;;0.30;89.81;98856.88;4965144;29;20059;-70
2021/11/28 10:05:00;;;;;;;1.98;1.13;;;;;;;0.29;89.86;98862.81;4963844;29;20026;-72
2021/11/28 10:07:26;;;;;;;2.25;1.88;;;;;;;0.31;89.53;98864.53;4965630;29;20038;-74
2021/11/28 10:09:52;;;;;;;3.58;2.10;;;;;;;0.17;89.70;98850.81;4965255;29;20030;-76
2021/11/28 10:12:19;;;;;;;3.63;1.63;;;;;;;0.31;89.01;98869.66;4947908;29;20108;-74
2021/11/28 10:14:48;;;;;;;5.63;1.70;;;;;;;0.22;89.55;98865.28;4948061;29;20023;-75
2021/11/28 10:17:18;;;;;;;2.15;1.77;;;;;;;0.27;89.28;98867.06;4965155;29;20038;-75
2021/11/28 10:19:44;;;;;;;5.13;1.58;;;;;;;0.33;89.28;98856.88;4965251;29;20015;-75
2021/11/28 10:22:10;;;;;;;2.33;1.75;;;;;;;0.31;89.13;98851.78;4965038;29;20027;-75
2021/11/28 10:24:36;;;;;;;3.47;1.80;;;;;;;0.23;89.62;98851.72;4947864;29;20051;-75
2021/11/28 10:27:06;;;;;;;3.55;1.48;;;;;;;0.11;89.86;98836.31;4965136;29;20384;-76
2021/11/28 10:29:36;;;;;;;3.65;1.75;;;;;;;0.28;89.50;98853.44;4948041;29;20038;-75
2021/11/28 10:32:04;;;;;;;4.63;1.30;;;;;;;0.32;88.83;98858.59;4964970;29;20122;-74
2021/11/28 10:34:38;;;;;;;1.80;1.40;;;;;;;0.24;89.18;98858.53;4963434;29;20033;-75
2021/11/28 10:37:16;;;;;;;2.88;1.45;;;;;;;0.20;89.65;98867.00;4965202;29;20034;-74
2021/11/28 10:39:50;;;;;;;2.83;1.52;;;;;;;0.19;89.67;98865.28;4966830;28;20200;-75
2021/11/28 10:42:22;;;;;;;4.50;2.53;;;;;;;0.10;89.85;98848.19;4968946;29;20054;-75
2021/11/28 10:44:59;;;;;;;;;;;;;;;0.28;89.35;98871.31;4984548;28;20117;-75
2021/11/28 10:47:52;;;;;;;4.53;2.28;;;;;;;0.25;89.53;98874.69;4951703;29;19942;-77
2021/11/28 10:50:29;;;;;;;6.18;2.40;;;;;;;0.14;89.87;98849.09;4951283;29;20475;-78
2021/11/28 10:53:07;;;;;;;2.22;1.38;;;;;;;0.24;89.84;98873.84;4951629;29;20034;-78
2021/11/28 10:55:42;;;;;;;5.60;2.58;;;;;;;0.33;89.06;98877.31;4967728;29;20023;-76
2021/11/28 10:58:24;;;;;;;2.03;1.27;;;;;;;0.36;89.10;98874.78;4969167;29;20027;-80
2021/11/28 11:00:50;;;;;;;4.68;2.00;;;;;;;0.25;89.38;98864.50;4969021;29;20086;-81
2021/11/28 11:03:21;;;;;;;2.97;1.40;;;;;;;0.30;89.48;98880.72;4967714;29;20051;-79
2021/11/28 11:05:50;;;;;;;3.67;2.33;;;;;;;0.33;88.85;98862.00;4970442;29;20027;-80
2021/11/28 11:08:16;;;;;;;4.57;2.08;;;;;;;0.33;89.18;98877.31;4952000;29;20023;-77
2021/11/28 11:10:47;;;;;;;4.43;1.83;;;;;;;0.37;88.78;98873.94;4969120;29;20027;-76
2021/11/28 11:13:19;;;;;;;3.17;1.97;;;;;;;0.46;87.70;98862.97;4968406;29;20024;-78
2021/11/28 11:15:49;;;;;;;2.10;1.10;;;;;;;0.33;88.62;98865.41;4968187;29;20027;-79
2021/11/28 11:18:21;;;;;;;5.10;1.80;;;;;;;0.24;89.08;98871.28;4967977;29;20508;-78
2021/11/28 11:23:39;;;;;;;2.42;1.80;;;;;;;0.31;88.64;98884.09;5100621;27;20379;-65
2021/11/28 11:26:22;;;;;;;1.55;1.15;;;;;;;0.35;88.70;98891.78;5101046;28;20040;-66
2021/11/28 11:29:10;;;;;;;2.53;1.23;;;;;;;0.39;88.34;98881.59;5099191;28;20016;-65
2021/11/28 11:31:36;;;;;;;2.65;1.63;;;;;;;0.40;88.09;98889.28;5100738;28;20040;-65
2021/11/28 11:34:02;;;;;;;1.90;1.52;;;;;;;0.39;88.14;98889.25;5100311;28;20021;-65
2021/11/28 11:36:54;;;;;;;3.42;1.48;;;;;;;0.41;88.25;98896.13;5100678;28;20095;-63
2021/11/28 11:39:20;;;;;;;5.30;1.65;;;;;;;0.32;88.69;98886.66;5100375;28;20036;-69
2021/11/28 11:41:46;;;;;;;4.75;1.95;;;;;;;0.35;88.26;98878.19;5098807;28;20086;-63
2021/11/28 11:44:16;;;;;;;2.72;1.38;;;;;;;0.46;87.16;98891.88;5099889;28;20024;-64